createdAt,value
2023-05-07T00:01:08.014Z,1.30
2023-05-07T00:03:35.181Z,0.97
2023-05-07T00:06:04.647Z,1.27
2023-05-07T00:08:31.780Z,0.80
2023-05-07T00:10:58.936Z,1.37
2023-05-07T00:13:26.114Z,1.20
2023-05-07T00:15:53.207Z,0.80
2023-05-07T00:18:23.387Z,1.07
2023-05-07T00:20:50.595Z,0.63
2023-05-07T00:23:17.820Z,1.20
2023-05-07T00:25:44.875Z,1.30
2023-05-07T00:28:14.146Z,1.07
2023-05-07T00:30:41.195Z,1.17
2023-05-07T00:33:08.325Z,1.03
2023-05-07T00:35:35.499Z,0.90
2023-05-07T00:38:02.583Z,1.80
2023-05-07T00:40:29.656Z,0.90
2023-05-07T00:42:58.943Z,1.87
2023-05-07T00:45:29.523Z,1.03
2023-05-07T00:48:02.473Z,1.27
2023-05-07T00:50:30.754Z,1.50
2023-05-07T00:52:58.140Z,1.00
2023-05-07T00:55:25.644Z,1.03
2023-05-07T00:57:53.194Z,1.40
2023-05-07T01:00:20.921Z,1.17
2023-05-07T01:02:48.354Z,0.93
2023-05-07T01:05:19.752Z,1.03
2023-05-07T01:07:48.417Z,1.43
2023-05-07T01:10:15.918Z,0.90
2023-05-07T01:12:44.663Z,1.60
2023-05-07T01:15:12.531Z,0.93
2023-05-07T01:17:43.517Z,1.47
2023-05-07T01:20:12.065Z,1.23
2023-05-07T01:22:40.897Z,0.90
2023-05-07T01:25:09.369Z,1.27
2023-05-07T01:27:38.087Z,1.80
2023-05-07T01:30:06.773Z,1.07
2023-05-07T01:33:09.254Z,0.90
2023-05-07T01:35:46.378Z,0.77
2023-05-07T01:38:14.277Z,1.10
2023-05-07T01:40:41.822Z,1.13
2023-05-07T01:43:10.024Z,1.00
2023-05-07T01:45:38.229Z,0.73
2023-05-07T01:48:05.863Z,0.80
2023-05-07T01:50:33.571Z,1.20
2023-05-07T01:53:02.086Z,0.80
2023-05-07T01:55:29.235Z,1.07
2023-05-07T01:57:56.545Z,1.07
2023-05-07T02:00:24.155Z,1.63
2023-05-07T02:02:51.407Z,1.17
2023-05-07T02:05:18.604Z,1.00
2023-05-07T02:07:45.634Z,0.97
2023-05-07T02:10:12.764Z,0.70
2023-05-07T02:12:40.168Z,1.13
2023-05-07T02:15:08.194Z,1.30
2023-05-07T02:17:36.270Z,1.37
2023-05-07T02:20:04.745Z,1.37
2023-05-07T02:22:31.799Z,1.50
2023-05-07T02:24:58.893Z,0.93
2023-05-07T02:27:26.030Z,1.10
2023-05-07T02:29:53.068Z,1.10
2023-05-07T02:32:20.748Z,2.57
2023-05-07T02:34:47.863Z,3.17
2023-05-07T02:37:14.909Z,3.33
2023-05-07T02:39:42.015Z,3.33
2023-05-07T02:42:09.047Z,2.47
2023-05-07T02:44:36.592Z,3.00
2023-05-07T02:47:03.663Z,2.73
2023-05-07T02:49:30.806Z,3.27
2023-05-07T02:51:57.857Z,2.90
2023-05-07T02:54:24.968Z,3.03
2023-05-07T02:56:53.113Z,3.10
2023-05-07T02:59:20.179Z,1.57
2023-05-07T03:01:47.316Z,1.83
2023-05-07T03:04:14.456Z,1.57
2023-05-07T03:06:41.598Z,0.70
2023-05-07T03:09:11.965Z,1.40
2023-05-07T03:11:39.330Z,1.37
2023-05-07T03:14:06.424Z,1.40
2023-05-07T03:16:33.945Z,1.20
2023-05-07T03:19:03.480Z,1.30
2023-05-07T03:21:31.610Z,1.40
2023-05-07T03:23:58.695Z,1.40
2023-05-07T03:26:26.278Z,1.20
2023-05-07T03:28:53.560Z,1.60
2023-05-07T03:31:20.887Z,1.17
2023-05-07T03:33:58.818Z,1.10
2023-05-07T03:36:27.832Z,1.00
2023-05-07T03:38:55.089Z,1.00
2023-05-07T03:41:22.429Z,0.90
2023-05-07T03:43:49.769Z,0.97
2023-05-07T03:46:16.871Z,1.10
2023-05-07T03:48:43.995Z,1.47
2023-05-07T03:51:11.113Z,1.00
2023-05-07T03:53:38.198Z,0.80
2023-05-07T03:56:06.139Z,1.00
2023-05-07T03:58:33.249Z,0.80
2023-05-07T04:01:00.347Z,0.70
2023-05-07T04:03:28.731Z,1.20
2023-05-07T04:05:56.040Z,0.90
2023-05-07T04:08:23.132Z,1.37
2023-05-07T04:10:59.122Z,1.00
2023-05-07T04:13:28.236Z,1.00
2023-05-07T04:15:57.210Z,1.60
2023-05-07T04:18:24.309Z,1.23
2023-05-07T04:20:51.459Z,1.17
2023-05-07T04:23:18.618Z,1.43
2023-05-07T04:25:46.255Z,1.23
2023-05-07T04:28:13.829Z,1.20
2023-05-07T04:30:42.223Z,1.03
2023-05-07T04:33:09.574Z,1.03
2023-05-07T04:35:37.339Z,0.73
2023-05-07T04:38:04.635Z,1.33
2023-05-07T04:40:31.657Z,1.20
2023-05-07T04:42:58.709Z,0.93
2023-05-07T04:45:25.832Z,1.20
2023-05-07T04:47:52.914Z,0.73
2023-05-07T04:50:20.835Z,1.07
2023-05-07T04:52:47.921Z,0.97
2023-05-07T04:55:15.003Z,1.00
2023-05-07T04:57:42.371Z,1.03
2023-05-07T05:00:10.424Z,0.90
2023-05-07T05:02:37.866Z,1.67
2023-05-07T05:05:05.749Z,0.87
2023-05-07T05:07:32.940Z,1.17
2023-05-07T05:10:00.456Z,1.00
2023-05-07T05:12:27.578Z,0.50
2023-05-07T05:14:55.194Z,1.07
2023-05-07T05:17:22.278Z,1.27
2023-05-07T05:19:49.380Z,0.93
2023-05-07T05:22:17.472Z,1.83
2023-05-07T05:24:44.544Z,2.00
2023-05-07T05:27:11.779Z,1.40
2023-05-07T05:29:38.936Z,1.07
2023-05-07T05:32:06.199Z,1.20
2023-05-07T05:34:34.318Z,0.97
2023-05-07T05:37:01.496Z,1.20
2023-05-07T05:39:28.613Z,1.37
2023-05-07T05:41:55.776Z,1.03
2023-05-07T05:44:22.917Z,1.30
2023-05-07T05:46:50.811Z,1.20
2023-05-07T05:49:18.067Z,1.10
2023-05-07T05:51:45.356Z,1.27
2023-05-07T05:54:12.412Z,0.90
2023-05-07T05:56:39.625Z,1.13
2023-05-07T05:59:06.990Z,0.90
2023-05-07T06:01:34.221Z,2.00
2023-05-07T06:04:01.316Z,0.67
2023-05-07T06:06:29.083Z,1.17
2023-05-07T06:08:56.140Z,1.30
2023-05-07T06:11:23.282Z,1.33
2023-05-07T06:13:50.379Z,1.27
2023-05-07T06:16:17.504Z,1.00
2023-05-07T06:18:46.300Z,1.37
2023-05-07T06:21:15.856Z,1.40
2023-05-07T06:23:42.958Z,0.90
2023-05-07T06:26:10.020Z,1.53
2023-05-07T06:28:37.161Z,1.20
2023-05-07T06:31:16.903Z,1.43
2023-05-07T06:33:46.104Z,0.87
2023-05-07T06:36:13.911Z,1.10
2023-05-07T06:38:40.995Z,0.70
2023-05-07T06:41:08.551Z,1.03
2023-05-07T06:43:36.386Z,1.17
2023-05-07T06:46:03.463Z,1.03
2023-05-07T06:48:30.498Z,1.30
2023-05-07T06:50:58.575Z,0.93
2023-05-07T06:53:26.843Z,1.10
2023-05-07T06:55:53.980Z,0.80
2023-05-07T07:00:48.198Z,0.93
2023-05-07T07:03:15.454Z,1.17
2023-05-07T07:05:43.149Z,1.80
2023-05-07T07:08:11.374Z,1.27
2023-05-07T07:10:38.504Z,1.43
2023-05-07T07:13:05.639Z,1.03
2023-05-07T07:15:32.731Z,0.90
2023-05-07T07:17:59.896Z,0.60
2023-05-07T07:20:27.058Z,0.80
2023-05-07T07:22:54.148Z,1.20
2023-05-07T07:25:21.228Z,1.17
2023-05-07T07:27:48.661Z,0.83
2023-05-07T07:30:16.027Z,0.80
2023-05-07T07:32:43.680Z,0.80
2023-05-07T07:35:11.208Z,0.90
2023-05-07T07:37:38.390Z,0.80
2023-05-07T07:40:06.742Z,0.63
2023-05-07T07:42:33.846Z,0.70
2023-05-07T07:45:02.916Z,1.30
2023-05-07T07:47:30.238Z,0.60
2023-05-07T07:49:57.863Z,0.70
2023-05-07T07:52:24.910Z,0.77
2023-05-07T07:54:51.982Z,0.80
2023-05-07T07:57:19.165Z,0.60
2023-05-07T07:59:46.418Z,0.90
2023-05-07T08:02:16.078Z,0.50
2023-05-07T08:04:44.293Z,0.73
2023-05-07T08:07:12.027Z,0.63
2023-05-07T08:09:43.153Z,0.90
2023-05-07T08:12:10.374Z,0.70
2023-05-07T08:14:38.020Z,0.90
2023-05-07T08:17:05.367Z,0.40
2023-05-07T08:19:32.512Z,0.60
2023-05-07T08:21:59.728Z,0.63
2023-05-07T08:24:26.940Z,0.43
2023-05-07T08:26:54.161Z,0.60
2023-05-07T08:29:21.230Z,0.60
2023-05-07T08:31:48.318Z,0.60
2023-05-07T08:34:15.708Z,0.80
2023-05-07T08:36:43.056Z,0.83
2023-05-07T08:39:10.170Z,0.70
2023-05-07T08:41:38.484Z,0.70
2023-05-07T08:44:12.946Z,0.70
2023-05-07T08:46:42.694Z,0.83
2023-05-07T08:49:10.527Z,1.00
2023-05-07T08:51:37.872Z,0.53
2023-05-07T08:54:06.249Z,0.77
2023-05-07T08:56:33.656Z,0.90
2023-05-07T08:59:00.962Z,0.40
2023-05-07T09:01:28.746Z,0.70
2023-05-07T09:03:55.960Z,0.70
2023-05-07T09:06:23.690Z,0.63
2023-05-07T09:08:54.612Z,0.63
2023-05-07T09:11:23.909Z,0.70
2023-05-07T09:13:57.043Z,0.70
2023-05-07T09:16:28.151Z,0.60
2023-05-07T09:18:59.421Z,0.50
2023-05-07T09:21:26.971Z,0.57
2023-05-07T09:23:56.927Z,0.30
2023-05-07T09:26:29.246Z,0.50
2023-05-07T09:28:56.507Z,0.50
2023-05-07T09:31:24.688Z,0.50
2023-05-07T09:33:53.399Z,0.50
2023-05-07T09:36:20.546Z,0.40
2023-05-07T09:38:52.337Z,0.50
2023-05-07T09:41:21.958Z,0.40
2023-05-07T09:43:56.302Z,0.50
2023-05-07T09:46:32.407Z,0.60
2023-05-07T09:49:00.661Z,0.53
2023-05-07T09:51:53.076Z,0.40
2023-05-07T09:54:20.633Z,0.40
2023-05-07T09:56:54.010Z,0.80
2023-05-07T09:59:25.404Z,0.30
2023-05-07T10:01:57.851Z,0.67
2023-05-07T10:04:27.244Z,0.50
2023-05-07T10:06:56.263Z,0.50
2023-05-07T10:09:23.879Z,0.30
2023-05-07T10:11:51.391Z,0.43
2023-05-07T10:14:20.507Z,0.40
2023-05-07T10:16:48.717Z,0.20
2023-05-07T10:19:17.403Z,0.33
2023-05-07T10:22:00.646Z,0.43
2023-05-07T10:24:38.476Z,0.20
2023-05-07T10:27:15.639Z,0.20
2023-05-07T10:30:16.962Z,0.23
2023-05-07T10:32:52.462Z,0.20
2023-05-07T10:35:30.460Z,0.30
2023-05-07T10:37:57.820Z,0.30
2023-05-07T10:40:25.398Z,0.40
2023-05-07T10:43:03.385Z,0.20
2023-05-07T10:45:30.777Z,0.30
2023-05-07T10:50:48.136Z,0.20
2023-05-07T10:53:18.200Z,0.20
2023-05-07T10:56:12.487Z,0.27
2023-05-07T10:58:39.537Z,0.27
2023-05-07T11:01:09.594Z,0.30
2023-05-07T11:03:36.838Z,0.20
2023-05-07T11:06:21.979Z,0.20
2023-05-07T11:08:59.343Z,0.40
2023-05-07T11:11:56.701Z,0.38
2023-05-07T11:14:42.454Z,0.40
2023-05-07T11:17:11.109Z,0.43
2023-05-07T11:19:53.987Z,0.40
2023-05-07T11:22:40.885Z,0.33
2023-05-07T11:25:08.806Z,0.37
2023-05-07T11:27:36.631Z,0.47
2023-05-07T11:30:04.339Z,0.47
2023-05-07T11:32:33.520Z,0.30
2023-05-07T11:35:02.073Z,0.40
2023-05-07T11:37:31.311Z,0.20
2023-05-07T11:40:11.642Z,0.30
2023-05-07T11:42:43.433Z,0.20
2023-05-07T11:45:11.668Z,0.33
2023-05-07T11:47:39.063Z,0.43
2023-05-07T11:50:09.227Z,0.30
2023-05-07T11:52:36.958Z,0.30
2023-05-07T11:55:05.706Z,0.30
2023-05-07T11:57:35.605Z,0.35
2023-05-07T12:00:05.647Z,0.40
2023-05-07T12:02:33.061Z,0.20
2023-05-07T12:05:03.502Z,0.40
2023-05-07T12:07:30.739Z,0.33
2023-05-07T12:09:57.838Z,0.38
2023-05-07T12:12:25.029Z,0.23
2023-05-07T12:14:53.142Z,0.38
2023-05-07T12:17:20.656Z,0.30
2023-05-07T12:20:00.036Z,0.20
2023-05-07T12:22:27.514Z,0.22
2023-05-07T12:25:04.093Z,0.35
2023-05-07T12:27:31.572Z,0.20
2023-05-07T12:30:00.299Z,0.35
2023-05-07T12:32:27.492Z,0.30
2023-05-07T12:34:54.661Z,0.30
2023-05-07T12:37:31.159Z,0.77
2023-05-07T12:40:21.547Z,0.50
2023-05-07T12:42:53.608Z,0.50
2023-05-07T12:45:21.384Z,0.30
2023-05-07T12:47:49.542Z,0.45
2023-05-07T12:50:17.937Z,0.35
2023-05-07T12:52:48.474Z,0.35
2023-05-07T12:55:17.836Z,0.35
2023-05-07T12:57:51.529Z,0.30
2023-05-07T13:00:38.007Z,0.30
2023-05-07T13:03:05.897Z,0.30
2023-05-07T13:05:36.307Z,0.20
2023-05-07T13:08:03.466Z,0.40
2023-05-07T13:10:30.805Z,0.30
2023-05-07T13:12:58.212Z,0.40
2023-05-07T13:15:26.841Z,0.40
2023-05-07T13:17:56.955Z,0.28
2023-05-07T13:20:24.309Z,0.30
2023-05-07T13:22:51.584Z,0.20
2023-05-07T13:25:18.907Z,0.30
2023-05-07T13:28:06.557Z,0.35
2023-05-07T13:30:37.838Z,0.22
2023-05-07T13:33:09.603Z,0.30
2023-05-07T13:35:36.975Z,0.45
2023-05-07T13:38:04.262Z,0.50
2023-05-07T13:40:31.721Z,0.47
2023-05-07T13:43:01.708Z,0.45
2023-05-07T13:45:30.784Z,0.43
2023-05-07T13:47:58.372Z,0.40
2023-05-07T13:50:27.796Z,0.52
2023-05-07T13:52:54.949Z,0.40
2023-05-07T13:55:25.104Z,0.45
2023-05-07T13:58:07.682Z,0.40
2023-05-07T14:00:35.395Z,0.20
2023-05-07T14:03:02.937Z,0.35
2023-05-07T14:05:30.126Z,0.50
2023-05-07T14:08:02.974Z,0.28
2023-05-07T14:10:30.501Z,0.25
2023-05-07T14:12:57.986Z,0.40
2023-05-07T14:15:25.810Z,0.30
2023-05-07T14:17:53.011Z,0.30
2023-05-07T14:20:20.359Z,0.20
2023-05-07T14:22:47.443Z,0.30
2023-05-07T14:25:17.573Z,0.30
2023-05-07T14:27:44.884Z,0.40
2023-05-07T14:30:12.898Z,0.20
2023-05-07T14:32:40.067Z,0.17
2023-05-07T14:35:07.736Z,0.30
2023-05-07T14:37:35.033Z,0.22
2023-05-07T14:40:05.748Z,0.30
2023-05-07T14:42:33.141Z,0.28
2023-05-07T14:45:00.323Z,0.30
2023-05-07T14:47:30.253Z,0.40
2023-05-07T14:49:58.329Z,0.50
2023-05-07T14:52:25.680Z,0.88
2023-05-07T14:54:52.763Z,0.15
2023-05-07T14:57:20.352Z,0.20
2023-05-07T14:59:48.088Z,0.10
2023-05-07T15:02:16.146Z,0.15
2023-05-07T15:04:46.728Z,0.40
2023-05-07T15:07:17.453Z,0.40
2023-05-07T15:09:45.699Z,0.30
2023-05-07T15:12:14.471Z,0.30
2023-05-07T15:14:42.108Z,0.20
2023-05-07T15:17:09.302Z,0.20
2023-05-07T15:19:36.465Z,0.10
2023-05-07T15:22:03.756Z,0.32
2023-05-07T15:24:31.710Z,0.40
2023-05-07T15:27:03.662Z,0.70
2023-05-07T15:29:31.269Z,1.23
2023-05-07T15:32:01.494Z,0.70
2023-05-07T15:34:30.353Z,2.97
2023-05-07T15:36:58.260Z,1.20
2023-05-07T15:39:25.699Z,1.90
2023-05-07T15:41:52.795Z,0.22
2023-05-07T15:44:20.074Z,0.28
2023-05-07T15:46:47.137Z,0.10
2023-05-07T15:49:14.225Z,0.30
2023-05-07T15:51:45.002Z,0.20
2023-05-07T15:54:12.527Z,0.10
2023-05-07T15:56:40.091Z,0.90
2023-05-07T15:59:07.795Z,1.95
2023-05-07T16:01:34.921Z,1.00
2023-05-07T16:04:02.365Z,0.40
2023-05-07T16:06:29.434Z,0.20
2023-05-07T16:08:56.566Z,0.90
2023-05-07T16:11:23.655Z,1.00
2023-05-07T16:13:51.098Z,1.15
2023-05-07T16:16:18.238Z,0.40
2023-05-07T16:18:45.308Z,0.50
2023-05-07T16:21:12.895Z,0.35
2023-05-07T16:23:40.384Z,0.20
2023-05-07T16:26:07.852Z,0.20
2023-05-07T16:28:35.231Z,0.70
2023-05-07T16:31:02.340Z,0.30
2023-05-07T16:33:29.476Z,0.30
2023-05-07T16:35:56.575Z,1.30
2023-05-07T16:38:23.674Z,1.30
2023-05-07T16:40:50.756Z,2.00
2023-05-07T16:43:18.117Z,0.45
2023-05-07T16:45:46.642Z,0.30
2023-05-07T16:48:13.726Z,2.90
2023-05-07T16:50:41.639Z,6.93
2023-05-07T16:53:10.574Z,2.80
2023-05-07T16:55:41.482Z,3.70
2023-05-07T16:58:11.243Z,4.65
2023-05-07T17:00:49.911Z,2.30
2023-05-07T17:03:18.881Z,4.45
2023-05-07T17:05:46.583Z,2.97
2023-05-07T17:08:14.174Z,0.82
2023-05-07T17:10:42.380Z,0.70
2023-05-07T17:13:09.588Z,0.50
2023-05-07T17:15:36.784Z,2.90
2023-05-07T17:18:04.040Z,1.17
2023-05-07T17:20:31.302Z,2.88
2023-05-07T17:22:58.395Z,0.20
2023-05-07T17:25:25.857Z,5.65
2023-05-07T17:27:53.101Z,0.70
2023-05-07T17:30:20.866Z,0.40
2023-05-07T17:32:48.128Z,0.28
2023-05-07T17:35:15.273Z,0.50
2023-05-07T17:37:46.777Z,0.10
2023-05-07T17:40:14.372Z,0.65
2023-05-07T17:42:41.548Z,0.20
2023-05-07T17:45:09.466Z,0.10
2023-05-07T17:47:36.534Z,0.37
2023-05-07T17:50:09.017Z,0.10
2023-05-07T17:52:37.608Z,0.20
2023-05-07T17:55:05.737Z,0.40
2023-05-07T17:57:35.342Z,0.20
2023-05-07T18:00:12.544Z,0.20
2023-05-07T18:02:41.156Z,0.33
2023-05-07T18:05:09.447Z,0.27
2023-05-07T18:07:37.468Z,0.20
2023-05-07T18:10:04.978Z,0.20
2023-05-07T18:12:32.220Z,0.30
2023-05-07T18:14:59.525Z,0.10
2023-05-07T18:17:27.785Z,0.10
2023-05-07T18:19:55.481Z,0.10
2023-05-07T18:22:23.984Z,0.00
2023-05-07T18:24:52.267Z,0.20
2023-05-07T18:27:19.461Z,0.10
2023-05-07T18:29:46.493Z,0.30
2023-05-07T18:32:16.746Z,0.10
2023-05-07T18:34:43.863Z,0.20
2023-05-07T18:37:10.922Z,0.10
2023-05-07T18:39:37.980Z,0.10
2023-05-07T18:42:05.380Z,0.10
2023-05-07T18:44:38.263Z,0.20
2023-05-07T18:47:06.282Z,0.20
2023-05-07T18:49:37.175Z,0.17
2023-05-07T18:52:04.557Z,0.20
2023-05-07T18:54:31.692Z,0.30
2023-05-07T18:56:58.814Z,0.30
2023-05-07T18:59:25.882Z,0.30
2023-05-07T19:01:53.281Z,0.20
2023-05-07T19:04:20.633Z,0.30
2023-05-07T19:06:47.825Z,0.20
2023-05-07T19:09:17.125Z,0.30
2023-05-07T19:11:44.286Z,0.17
2023-05-07T19:14:11.363Z,0.20
2023-05-07T19:16:38.707Z,0.27
2023-05-07T19:19:06.608Z,0.30
2023-05-07T19:21:33.831Z,0.23
2023-05-07T19:24:00.912Z,0.20
2023-05-07T19:26:28.000Z,0.20
2023-05-07T19:29:12.499Z,0.17
2023-05-07T19:31:43.926Z,0.20
2023-05-07T19:34:13.124Z,0.20
2023-05-07T19:36:40.674Z,0.13
2023-05-07T19:39:07.756Z,0.10
2023-05-07T19:41:35.042Z,0.10
2023-05-07T19:44:02.163Z,0.20
2023-05-07T19:46:29.257Z,0.30
2023-05-07T19:48:56.356Z,0.57
2023-05-07T19:51:23.673Z,0.20
2023-05-07T19:53:51.453Z,0.40
2023-05-07T19:56:18.519Z,0.20
2023-05-07T19:58:45.721Z,0.57
2023-05-07T20:01:12.758Z,0.30
2023-05-07T20:03:39.955Z,0.20
2023-05-07T20:06:07.125Z,0.20
2023-05-07T20:08:34.263Z,0.20
2023-05-07T20:11:01.597Z,0.23
2023-05-07T20:13:28.791Z,0.20
2023-05-07T20:16:02.520Z,0.40
2023-05-07T20:18:29.869Z,0.20
2023-05-07T20:20:57.142Z,0.17
2023-05-07T20:23:24.586Z,0.27
2023-05-07T20:25:51.949Z,0.30
2023-05-07T20:28:19.189Z,0.60
2023-05-07T20:30:48.627Z,1.90
2023-05-07T20:33:16.063Z,1.20
2023-05-07T20:35:43.170Z,1.33
2023-05-07T20:38:10.311Z,1.00
2023-05-07T20:40:37.977Z,1.10
2023-05-07T20:43:06.564Z,1.20
2023-05-07T20:45:33.719Z,1.30
2023-05-07T20:48:01.080Z,1.20
2023-05-07T20:50:28.702Z,1.37
2023-05-07T20:52:55.887Z,1.40
2023-05-07T20:55:23.370Z,1.30
2023-05-07T20:57:50.524Z,1.00
2023-05-07T21:00:18.250Z,1.30
2023-05-07T21:02:45.934Z,1.17
2023-05-07T21:05:13.089Z,1.10
2023-05-07T21:07:40.212Z,1.60
2023-05-07T21:10:08.324Z,1.30
2023-05-07T21:12:35.653Z,1.17
2023-05-07T21:15:02.839Z,1.40
2023-05-07T21:17:31.726Z,1.80
2023-05-07T21:19:58.920Z,1.70
2023-05-07T21:22:26.081Z,1.43
2023-05-07T21:24:53.162Z,1.60
2023-05-07T21:27:20.293Z,1.50
2023-05-07T21:29:47.479Z,1.40
2023-05-07T21:32:17.223Z,1.67
2023-05-07T21:34:44.242Z,1.60
2023-05-07T21:37:11.325Z,1.73
2023-05-07T21:39:38.438Z,2.20
2023-05-07T21:42:05.537Z,1.90
2023-05-07T21:44:32.674Z,1.70
2023-05-07T21:47:02.946Z,2.03
2023-05-07T21:49:30.139Z,2.00
2023-05-07T21:51:57.172Z,1.90
2023-05-07T21:54:26.513Z,2.13
2023-05-07T21:56:53.727Z,2.27
2023-05-07T21:59:20.813Z,2.43
2023-05-07T22:01:47.999Z,2.20
2023-05-07T22:04:15.110Z,2.70
2023-05-07T22:06:42.192Z,2.00
2023-05-07T22:09:09.374Z,2.17
2023-05-07T22:11:36.466Z,2.33
2023-05-07T22:14:03.610Z,2.40
2023-05-07T22:16:31.031Z,2.33
2023-05-07T22:18:58.145Z,2.50
2023-05-07T22:21:25.514Z,2.27
2023-05-07T22:23:52.613Z,2.43
2023-05-07T22:26:19.675Z,2.33
2023-05-07T22:28:46.748Z,2.57
2023-05-07T22:31:13.950Z,2.53
2023-05-07T22:33:41.099Z,2.70
2023-05-07T22:36:08.513Z,2.47
2023-05-07T22:38:35.734Z,2.70
2023-05-07T22:41:02.800Z,2.57
2023-05-07T22:43:29.842Z,2.93
2023-05-07T22:46:01.306Z,2.60
2023-05-07T22:48:35.005Z,3.00
2023-05-07T22:51:02.073Z,3.03
2023-05-07T22:53:29.099Z,3.20
2023-05-07T22:55:56.183Z,3.20
2023-05-07T22:58:23.730Z,2.80
2023-05-07T23:00:50.836Z,3.07
2023-05-07T23:03:18.099Z,3.50
2023-05-07T23:05:45.432Z,3.27
2023-05-07T23:08:12.737Z,3.40
2023-05-07T23:10:39.893Z,3.00
2023-05-07T23:13:09.301Z,3.70
2023-05-07T23:15:36.422Z,3.77
2023-05-07T23:18:03.581Z,3.30
2023-05-07T23:20:31.442Z,2.97
2023-05-07T23:22:58.649Z,3.40
2023-05-07T23:25:25.692Z,3.63
2023-05-07T23:27:52.844Z,3.67
2023-05-07T23:30:20.059Z,3.37
2023-05-07T23:32:47.297Z,3.23
2023-05-07T23:35:14.437Z,3.07
2023-05-07T23:37:41.667Z,3.60
2023-05-07T23:40:09.115Z,3.50
2023-05-07T23:42:36.519Z,4.00
2023-05-07T23:45:04.486Z,3.10
2023-05-07T23:47:31.650Z,2.90
2023-05-07T23:49:58.732Z,3.60
2023-05-07T23:52:26.115Z,3.53
2023-05-07T23:54:53.174Z,3.30
2023-05-07T23:57:20.244Z,3.13
2023-05-07T23:59:47.317Z,3.20
